sensor_id;sensor_type;location;lat;lon;timestamp;P1;durP1;ratioP1;P2;durP2;ratioP2
18286;SDS011;9269;50.838;12.094;2023-04-19T00:02:25;28.27;;;22.70;;
18286;SDS011;9269;50.838;12.094;2023-04-19T00:04:55;25.80;;;22.83;;
18286;SDS011;9269;50.838;12.094;2023-04-19T00:07:26;24.53;;;21.90;;
18286;SDS011;9269;50.838;12.094;2023-04-19T00:09:54;26.07;;;22.60;;
18286;SDS011;9269;50.838;12.094;2023-04-19T00:12:22;24.53;;;20.87;;
18286;SDS011;9269;50.838;12.094;2023-04-19T00:14:51;26.87;;;21.53;;
18286;SDS011;9269;50.838;12.094;2023-04-19T00:17:19;24.50;;;21.37;;
18286;SDS011;9269;50.838;12.094;2023-04-19T00:19:50;22.60;;;20.27;;
18286;SDS011;9269;50.838;12.094;2023-04-19T00:22:18;22.20;;;19.80;;
18286;SDS011;9269;50.838;12.094;2023-04-19T00:24:46;23.23;;;19.00;;
18286;SDS011;9269;50.838;12.094;2023-04-19T00:27:14;20.10;;;18.00;;
18286;SDS011;9269;50.838;12.094;2023-04-19T00:29:43;20.03;;;17.83;;
18286;SDS011;9269;50.838;12.094;2023-04-19T00:32:11;19.23;;;16.27;;
18286;SDS011;9269;50.838;12.094;2023-04-19T00:34:39;16.37;;;14.67;;
18286;SDS011;9269;50.838;12.094;2023-04-19T00:37:09;17.80;;;15.27;;
18286;SDS011;9269;50.838;12.094;2023-04-19T00:39:38;16.13;;;14.50;;
18286;SDS011;9269;50.838;12.094;2023-04-19T00:42:06;17.73;;;14.80;;
18286;SDS011;9269;50.838;12.094;2023-04-19T00:44:34;19.07;;;15.13;;
18286;SDS011;9269;50.838;12.094;2023-04-19T00:47:03;16.80;;;15.00;;
18286;SDS011;9269;50.838;12.094;2023-04-19T00:49:33;16.03;;;14.33;;
18286;SDS011;9269;50.838;12.094;2023-04-19T00:52:05;18.70;;;15.30;;
18286;SDS011;9269;50.838;12.094;2023-04-19T00:54:36;17.17;;;14.40;;
18286;SDS011;9269;50.838;12.094;2023-04-19T00:57:06;16.47;;;13.43;;
18286;SDS011;9269;50.838;12.094;2023-04-19T00:59:34;15.23;;;12.93;;
18286;SDS011;9269;50.838;12.094;2023-04-19T01:02:03;13.47;;;12.07;;
18286;SDS011;9269;50.838;12.094;2023-04-19T01:04:33;13.43;;;12.03;;
18286;SDS011;9269;50.838;12.094;2023-04-19T01:07:01;13.43;;;11.23;;
18286;SDS011;9269;50.838;12.094;2023-04-19T01:09:30;12.20;;;10.83;;
18286;SDS011;9269;50.838;12.094;2023-04-19T01:12:00;13.33;;;11.37;;
18286;SDS011;9269;50.838;12.094;2023-04-19T01:14:29;11.60;;;10.33;;
18286;SDS011;9269;50.838;12.094;2023-04-19T01:16:57;12.57;;;11.33;;
18286;SDS011;9269;50.838;12.094;2023-04-19T01:19:25;14.23;;;12.73;;
18286;SDS011;9269;50.838;12.094;2023-04-19T01:21:54;11.07;;;9.87;;
18286;SDS011;9269;50.838;12.094;2023-04-19T01:24:25;11.40;;;9.90;;
18286;SDS011;9269;50.838;12.094;2023-04-19T01:26:53;11.83;;;9.43;;
18286;SDS011;9269;50.838;12.094;2023-04-19T01:29:22;10.53;;;9.43;;
18286;SDS011;9269;50.838;12.094;2023-04-19T01:31:50;10.20;;;9.20;;
18286;SDS011;9269;50.838;12.094;2023-04-19T01:34:20;9.67;;;8.70;;
18286;SDS011;9269;50.838;12.094;2023-04-19T01:36:49;11.00;;;9.17;;
18286;SDS011;9269;50.838;12.094;2023-04-19T01:39:17;10.67;;;8.70;;
18286;SDS011;9269;50.838;12.094;2023-04-19T01:41:47;9.50;;;8.60;;
18286;SDS011;9269;50.838;12.094;2023-04-19T01:44:16;11.20;;;8.43;;
18286;SDS011;9269;50.838;12.094;2023-04-19T01:46:44;10.17;;;9.00;;
18286;SDS011;9269;50.838;12.094;2023-04-19T01:49:12;9.67;;;8.67;;
18286;SDS011;9269;50.838;12.094;2023-04-19T01:51:41;10.10;;;8.40;;
18286;SDS011;9269;50.838;12.094;2023-04-19T01:54:09;11.27;;;8.07;;
18286;SDS011;9269;50.838;12.094;2023-04-19T01:56:38;10.27;;;8.90;;
18286;SDS011;9269;50.838;12.094;2023-04-19T01:59:07;10.57;;;8.43;;
18286;SDS011;9269;50.838;12.094;2023-04-19T02:01:36;10.33;;;7.90;;
18286;SDS011;9269;50.838;12.094;2023-04-19T02:04:04;10.73;;;7.87;;
18286;SDS011;9269;50.838;12.094;2023-04-19T02:06:33;9.07;;;7.83;;
18286;SDS011;9269;50.838;12.094;2023-04-19T02:09:01;9.30;;;7.93;;
18286;SDS011;9269;50.838;12.094;2023-04-19T02:11:30;9.30;;;8.30;;
18286;SDS011;9269;50.838;12.094;2023-04-19T02:13:58;9.80;;;7.43;;
18286;SDS011;9269;50.838;12.094;2023-04-19T02:16:28;8.70;;;7.43;;
18286;SDS011;9269;50.838;12.094;2023-04-19T02:18:58;9.07;;;7.90;;
18286;SDS011;9269;50.838;12.094;2023-04-19T02:21:26;8.73;;;7.47;;
18286;SDS011;9269;50.838;12.094;2023-04-19T02:23:55;8.57;;;7.30;;
18286;SDS011;9269;50.838;12.094;2023-04-19T02:26:23;9.10;;;7.13;;
18286;SDS011;9269;50.838;12.094;2023-04-19T02:28:52;11.53;;;7.40;;
18286;SDS011;9269;50.838;12.094;2023-04-19T02:31:20;8.77;;;7.23;;
18286;SDS011;9269;50.838;12.094;2023-04-19T02:33:49;7.57;;;6.87;;
18286;SDS011;9269;50.838;12.094;2023-04-19T02:36:18;9.30;;;7.03;;
18286;SDS011;9269;50.838;12.094;2023-04-19T02:38:46;8.30;;;7.07;;
18286;SDS011;9269;50.838;12.094;2023-04-19T02:41:15;9.20;;;7.23;;
18286;SDS011;9269;50.838;12.094;2023-04-19T02:43:44;7.97;;;7.17;;
18286;SDS011;9269;50.838;12.094;2023-04-19T02:46:12;9.47;;;6.83;;
18286;SDS011;9269;50.838;12.094;2023-04-19T02:48:40;8.87;;;7.00;;
18286;SDS011;9269;50.838;12.094;2023-04-19T02:51:14;7.17;;;6.33;;
18286;SDS011;9269;50.838;12.094;2023-04-19T02:53:43;11.40;;;6.90;;
18286;SDS011;9269;50.838;12.094;2023-04-19T02:56:12;7.47;;;6.23;;
18286;SDS011;9269;50.838;12.094;2023-04-19T02:58:41;8.77;;;7.50;;
18286;SDS011;9269;50.838;12.094;2023-04-19T03:01:10;7.93;;;6.37;;
18286;SDS011;9269;50.838;12.094;2023-04-19T03:03:38;8.93;;;6.33;;
18286;SDS011;9269;50.838;12.094;2023-04-19T03:06:06;8.10;;;6.60;;
18286;SDS011;9269;50.838;12.094;2023-04-19T03:08:37;8.10;;;7.30;;
18286;SDS011;9269;50.838;12.094;2023-04-19T03:11:06;8.87;;;6.70;;
18286;SDS011;9269;50.838;12.094;2023-04-19T03:13:34;8.10;;;7.00;;
18286;SDS011;9269;50.838;12.094;2023-04-19T03:16:03;9.23;;;7.50;;
18286;SDS011;9269;50.838;12.094;2023-04-19T03:18:32;7.83;;;7.03;;
18286;SDS011;9269;50.838;12.094;2023-04-19T03:21:00;7.70;;;6.93;;
18286;SDS011;9269;50.838;12.094;2023-04-19T03:23:29;9.27;;;7.60;;
18286;SDS011;9269;50.838;12.094;2023-04-19T03:25:59;9.27;;;7.57;;
18286;SDS011;9269;50.838;12.094;2023-04-19T03:28:27;10.00;;;8.07;;
18286;SDS011;9269;50.838;12.094;2023-04-19T03:30:56;10.30;;;7.77;;
18286;SDS011;9269;50.838;12.094;2023-04-19T03:33:24;10.83;;;8.33;;
18286;SDS011;9269;50.838;12.094;2023-04-19T03:35:53;9.40;;;8.43;;
18286;SDS011;9269;50.838;12.094;2023-04-19T03:38:21;10.10;;;8.67;;
18286;SDS011;9269;50.838;12.094;2023-04-19T03:40:49;9.93;;;8.70;;
18286;SDS011;9269;50.838;12.094;2023-04-19T03:43:19;10.27;;;8.70;;
18286;SDS011;9269;50.838;12.094;2023-04-19T03:45:47;11.50;;;10.17;;
18286;SDS011;9269;50.838;12.094;2023-04-19T03:48:17;11.73;;;10.00;;
18286;SDS011;9269;50.838;12.094;2023-04-19T03:50:45;13.23;;;9.93;;
18286;SDS011;9269;50.838;12.094;2023-04-19T03:53:14;12.57;;;10.30;;
18286;SDS011;9269;50.838;12.094;2023-04-19T03:55:44;12.77;;;10.50;;
18286;SDS011;9269;50.838;12.094;2023-04-19T03:58:12;13.07;;;11.63;;
18286;SDS011;9269;50.838;12.094;2023-04-19T04:00:43;13.37;;;10.77;;
18286;SDS011;9269;50.838;12.094;2023-04-19T04:03:11;13.43;;;11.33;;
18286;SDS011;9269;50.838;12.094;2023-04-19T04:05:40;13.47;;;11.67;;
18286;SDS011;9269;50.838;12.094;2023-04-19T04:08:10;13.80;;;11.30;;
18286;SDS011;9269;50.838;12.094;2023-04-19T04:10:39;15.13;;;12.63;;
18286;SDS011;9269;50.838;12.094;2023-04-19T04:13:08;14.97;;;12.77;;
18286;SDS011;9269;50.838;12.094;2023-04-19T04:15:39;14.30;;;12.17;;
18286;SDS011;9269;50.838;12.094;2023-04-19T04:18:08;16.30;;;13.03;;
18286;SDS011;9269;50.838;12.094;2023-04-19T04:20:36;14.97;;;11.17;;
18286;SDS011;9269;50.838;12.094;2023-04-19T04:23:05;16.00;;;12.07;;
18286;SDS011;9269;50.838;12.094;2023-04-19T04:25:33;19.20;;;13.30;;
18286;SDS011;9269;50.838;12.094;2023-04-19T04:28:04;17.67;;;13.43;;
18286;SDS011;9269;50.838;12.094;2023-04-19T04:30:32;16.60;;;13.20;;
18286;SDS011;9269;50.838;12.094;2023-04-19T04:33:02;18.23;;;15.17;;
18286;SDS011;9269;50.838;12.094;2023-04-19T04:35:31;18.30;;;14.57;;
18286;SDS011;9269;50.838;12.094;2023-04-19T04:38:01;18.30;;;15.47;;
18286;SDS011;9269;50.838;12.094;2023-04-19T04:40:39;18.30;;;15.47;;
18286;SDS011;9269;50.838;12.094;2023-04-19T04:43:08;21.10;;;16.60;;
18286;SDS011;9269;50.838;12.094;2023-04-19T04:45:37;19.87;;;17.33;;
18286;SDS011;9269;50.838;12.094;2023-04-19T04:48:05;22.83;;;16.93;;
18286;SDS011;9269;50.838;12.094;2023-04-19T04:50:36;20.97;;;16.73;;
18286;SDS011;9269;50.838;12.094;2023-04-19T04:53:04;20.33;;;16.00;;
18286;SDS011;9269;50.838;12.094;2023-04-19T04:55:33;18.77;;;14.97;;
18286;SDS011;9269;50.838;12.094;2023-04-19T04:58:01;20.43;;;14.63;;
18286;SDS011;9269;50.838;12.094;2023-04-19T05:00:31;17.90;;;15.13;;
18286;SDS011;9269;50.838;12.094;2023-04-19T05:03:00;17.83;;;13.63;;
18286;SDS011;9269;50.838;12.094;2023-04-19T05:05:29;20.07;;;15.37;;
18286;SDS011;9269;50.838;12.094;2023-04-19T05:07:58;18.70;;;13.70;;
18286;SDS011;9269;50.838;12.094;2023-04-19T05:10:27;16.93;;;14.27;;
18286;SDS011;9269;50.838;12.094;2023-04-19T05:12:55;17.03;;;12.93;;
18286;SDS011;9269;50.838;12.094;2023-04-19T05:15:23;16.30;;;12.07;;
18286;SDS011;9269;50.838;12.094;2023-04-19T05:17:51;14.63;;;11.27;;
18286;SDS011;9269;50.838;12.094;2023-04-19T05:20:20;14.80;;;10.87;;
18286;SDS011;9269;50.838;12.094;2023-04-19T05:22:49;13.20;;;11.23;;
18286;SDS011;9269;50.838;12.094;2023-04-19T05:25:18;14.57;;;10.90;;
18286;SDS011;9269;50.838;12.094;2023-04-19T05:27:46;13.57;;;10.13;;
18286;SDS011;9269;50.838;12.094;2023-04-19T05:30:15;12.20;;;9.33;;
18286;SDS011;9269;50.838;12.094;2023-04-19T05:32:43;13.50;;;10.33;;
18286;SDS011;9269;50.838;12.094;2023-04-19T05:35:12;10.83;;;9.73;;
18286;SDS011;9269;50.838;12.094;2023-04-19T05:37:40;9.70;;;8.70;;
18286;SDS011;9269;50.838;12.094;2023-04-19T05:40:09;10.33;;;8.70;;
18286;SDS011;9269;50.838;12.094;2023-04-19T05:42:40;12.10;;;8.90;;
18286;SDS011;9269;50.838;12.094;2023-04-19T05:45:10;11.23;;;8.90;;
18286;SDS011;9269;50.838;12.094;2023-04-19T05:47:41;10.00;;;8.57;;
18286;SDS011;9269;50.838;12.094;2023-04-19T05:50:09;11.00;;;7.67;;
18286;SDS011;9269;50.838;12.094;2023-04-19T05:52:38;10.43;;;7.73;;
18286;SDS011;9269;50.838;12.094;2023-04-19T05:55:07;9.67;;;7.27;;
18286;SDS011;9269;50.838;12.094;2023-04-19T05:57:36;9.30;;;7.17;;
18286;SDS011;9269;50.838;12.094;2023-04-19T06:00:07;8.90;;;6.43;;
18286;SDS011;9269;50.838;12.094;2023-04-19T06:02:37;7.17;;;6.23;;
18286;SDS011;9269;50.838;12.094;2023-04-19T06:05:05;7.63;;;6.03;;
18286;SDS011;9269;50.838;12.094;2023-04-19T06:07:36;8.63;;;6.87;;
18286;SDS011;9269;50.838;12.094;2023-04-19T06:10:16;7.83;;;6.10;;
18286;SDS011;9269;50.838;12.094;2023-04-19T06:12:44;6.63;;;5.80;;
18286;SDS011;9269;50.838;12.094;2023-04-19T06:15:15;10.53;;;6.20;;
18286;SDS011;9269;50.838;12.094;2023-04-19T06:17:43;9.13;;;5.90;;
18286;SDS011;9269;50.838;12.094;2023-04-19T06:20:12;9.27;;;5.83;;
18286;SDS011;9269;50.838;12.094;2023-04-19T06:22:41;6.27;;;5.43;;
18286;SDS011;9269;50.838;12.094;2023-04-19T06:25:10;6.80;;;5.93;;
18286;SDS011;9269;50.838;12.094;2023-04-19T06:27:39;7.83;;;5.17;;
18286;SDS011;9269;50.838;12.094;2023-04-19T06:30:07;8.43;;;5.53;;
18286;SDS011;9269;50.838;12.094;2023-04-19T06:32:37;7.73;;;5.60;;
18286;SDS011;9269;50.838;12.094;2023-04-19T06:35:06;5.93;;;5.27;;
18286;SDS011;9269;50.838;12.094;2023-04-19T06:37:35;8.83;;;5.90;;
18286;SDS011;9269;50.838;12.094;2023-04-19T06:40:04;7.37;;;5.53;;
18286;SDS011;9269;50.838;12.094;2023-04-19T06:42:34;5.97;;;5.40;;
18286;SDS011;9269;50.838;12.094;2023-04-19T06:45:02;7.30;;;5.27;;
18286;SDS011;9269;50.838;12.094;2023-04-19T06:47:32;5.63;;;5.10;;
18286;SDS011;9269;50.838;12.094;2023-04-19T06:50:04;7.33;;;4.90;;
18286;SDS011;9269;50.838;12.094;2023-04-19T06:52:33;7.40;;;4.80;;
18286;SDS011;9269;50.838;12.094;2023-04-19T06:55:01;5.67;;;4.90;;
18286;SDS011;9269;50.838;12.094;2023-04-19T06:57:30;6.10;;;4.93;;
18286;SDS011;9269;50.838;12.094;2023-04-19T06:59:58;7.17;;;5.20;;
18286;SDS011;9269;50.838;12.094;2023-04-19T07:02:27;5.50;;;4.60;;
18286;SDS011;9269;50.838;12.094;2023-04-19T07:04:55;5.97;;;4.70;;
18286;SDS011;9269;50.838;12.094;2023-04-19T07:07:25;6.70;;;4.63;;
18286;SDS011;9269;50.838;12.094;2023-04-19T07:09:54;5.40;;;4.63;;
18286;SDS011;9269;50.838;12.094;2023-04-19T07:12:22;8.30;;;4.70;;
18286;SDS011;9269;50.838;12.094;2023-04-19T07:14:50;6.33;;;4.70;;
18286;SDS011;9269;50.838;12.094;2023-04-19T07:17:22;4.80;;;4.40;;
18286;SDS011;9269;50.838;12.094;2023-04-19T07:19:56;7.53;;;4.70;;
18286;SDS011;9269;50.838;12.094;2023-04-19T07:22:26;5.70;;;4.83;;
18286;SDS011;9269;50.838;12.094;2023-04-19T07:24:58;5.53;;;4.60;;
18286;SDS011;9269;50.838;12.094;2023-04-19T07:27:26;7.27;;;4.67;;
18286;SDS011;9269;50.838;12.094;2023-04-19T07:29:55;5.87;;;4.63;;
18286;SDS011;9269;50.838;12.094;2023-04-19T07:32:23;4.50;;;4.10;;
18286;SDS011;9269;50.838;12.094;2023-04-19T07:34:51;5.93;;;4.53;;
18286;SDS011;9269;50.838;12.094;2023-04-19T07:37:20;5.77;;;4.23;;
18286;SDS011;9269;50.838;12.094;2023-04-19T07:39:50;4.60;;;4.07;;
18286;SDS011;9269;50.838;12.094;2023-04-19T07:42:18;5.33;;;4.33;;
18286;SDS011;9269;50.838;12.094;2023-04-19T07:44:46;4.17;;;3.20;;
18286;SDS011;9269;50.838;12.094;2023-04-19T07:47:15;4.43;;;3.40;;
18286;SDS011;9269;50.838;12.094;2023-04-19T07:49:43;4.90;;;3.27;;
18286;SDS011;9269;50.838;12.094;2023-04-19T07:52:12;4.03;;;3.63;;
18286;SDS011;9269;50.838;12.094;2023-04-19T07:54:40;4.73;;;3.83;;
18286;SDS011;9269;50.838;12.094;2023-04-19T07:57:10;3.80;;;3.37;;
18286;SDS011;9269;50.838;12.094;2023-04-19T07:59:38;3.50;;;3.20;;
18286;SDS011;9269;50.838;12.094;2023-04-19T08:02:07;3.77;;;2.93;;
18286;SDS011;9269;50.838;12.094;2023-04-19T08:04:36;3.87;;;3.20;;
18286;SDS011;9269;50.838;12.094;2023-04-19T08:07:06;3.83;;;3.50;;
18286;SDS011;9269;50.838;12.094;2023-04-19T08:09:35;3.87;;;3.47;;
18286;SDS011;9269;50.838;12.094;2023-04-19T08:12:04;4.73;;;3.60;;
18286;SDS011;9269;50.838;12.094;2023-04-19T08:14:35;4.50;;;3.40;;
18286;SDS011;9269;50.838;12.094;2023-04-19T08:17:25;4.53;;;3.33;;
18286;SDS011;9269;50.838;12.094;2023-04-19T08:20:02;3.70;;;3.40;;
18286;SDS011;9269;50.838;12.094;2023-04-19T08:22:32;3.50;;;3.20;;
18286;SDS011;9269;50.838;12.094;2023-04-19T08:25:00;4.10;;;3.33;;
18286;SDS011;9269;50.838;12.094;2023-04-19T08:27:29;3.50;;;3.20;;
18286;SDS011;9269;50.838;12.094;2023-04-19T08:29:58;4.60;;;3.20;;
18286;SDS011;9269;50.838;12.094;2023-04-19T08:32:27;5.97;;;3.37;;
18286;SDS011;9269;50.838;12.094;2023-04-19T08:34:58;4.53;;;3.60;;
18286;SDS011;9269;50.838;12.094;2023-04-19T08:37:27;3.30;;;2.93;;
18286;SDS011;9269;50.838;12.094;2023-04-19T08:39:55;4.50;;;3.40;;
18286;SDS011;9269;50.838;12.094;2023-04-19T08:42:23;4.33;;;2.93;;
18286;SDS011;9269;50.838;12.094;2023-04-19T08:45:04;3.90;;;3.33;;
18286;SDS011;9269;50.838;12.094;2023-04-19T08:47:37;5.17;;;3.30;;
18286;SDS011;9269;50.838;12.094;2023-04-19T08:50:09;3.67;;;3.37;;
18286;SDS011;9269;50.838;12.094;2023-04-19T08:52:46;5.27;;;3.80;;
18286;SDS011;9269;50.838;12.094;2023-04-19T08:55:27;3.70;;;3.40;;
18286;SDS011;9269;50.838;12.094;2023-04-19T08:58:09;4.53;;;3.10;;
18286;SDS011;9269;50.838;12.094;2023-04-19T09:00:56;4.27;;;3.53;;
18286;SDS011;9269;50.838;12.094;2023-04-19T09:03:29;3.50;;;3.20;;
18286;SDS011;9269;50.838;12.094;2023-04-19T09:06:23;3.20;;;2.90;;
18286;SDS011;9269;50.838;12.094;2023-04-19T09:08:53;5.90;;;3.70;;
18286;SDS011;9269;50.838;12.094;2023-04-19T09:11:59;4.20;;;3.70;;
18286;SDS011;9269;50.838;12.094;2023-04-19T09:14:28;4.97;;;3.53;;
18286;SDS011;9269;50.838;12.094;2023-04-19T09:17:11;3.87;;;3.47;;
18286;SDS011;9269;50.838;12.094;2023-04-19T09:19:47;4.50;;;3.90;;
18286;SDS011;9269;50.838;12.094;2023-04-19T09:22:16;4.30;;;3.30;;
18286;SDS011;9269;50.838;12.094;2023-04-19T09:24:44;3.80;;;3.17;;
18286;SDS011;9269;50.838;12.094;2023-04-19T09:27:35;5.30;;;3.70;;
18286;SDS011;9269;50.838;12.094;2023-04-19T09:30:04;4.83;;;3.87;;
18286;SDS011;9269;50.838;12.094;2023-04-19T09:32:46;3.43;;;3.10;;
18286;SDS011;9269;50.838;12.094;2023-04-19T09:35:16;3.60;;;3.30;;
18286;SDS011;9269;50.838;12.094;2023-04-19T09:37:56;3.57;;;3.27;;
18286;SDS011;9269;50.838;12.094;2023-04-19T09:40:32;4.20;;;3.50;;
18286;SDS011;9269;50.838;12.094;2023-04-19T09:43:01;4.90;;;3.90;;
18286;SDS011;9269;50.838;12.094;2023-04-19T09:45:50;3.33;;;3.10;;
18286;SDS011;9269;50.838;12.094;2023-04-19T09:48:22;3.60;;;3.30;;
18286;SDS011;9269;50.838;12.094;2023-04-19T09:50:51;3.67;;;3.37;;
18286;SDS011;9269;50.838;12.094;2023-04-19T09:53:29;4.17;;;3.47;;
18286;SDS011;9269;50.838;12.094;2023-04-19T09:56:00;4.30;;;3.50;;
18286;SDS011;9269;50.838;12.094;2023-04-19T09:58:31;4.80;;;3.30;;
18286;SDS011;9269;50.838;12.094;2023-04-19T10:01:15;4.83;;;3.60;;
18286;SDS011;9269;50.838;12.094;2023-04-19T10:03:49;3.20;;;2.90;;
18286;SDS011;9269;50.838;12.094;2023-04-19T10:06:19;3.97;;;3.10;;
18286;SDS011;9269;50.838;12.094;2023-04-19T10:08:51;4.23;;;3.60;;
18286;SDS011;9269;50.838;12.094;2023-04-19T10:11:21;3.70;;;3.13;;
18286;SDS011;9269;50.838;12.094;2023-04-19T10:13:51;4.30;;;3.60;;
18286;SDS011;9269;50.838;12.094;2023-04-19T10:16:24;5.07;;;3.60;;
18286;SDS011;9269;50.838;12.094;2023-04-19T10:18:55;4.60;;;3.30;;
18286;SDS011;9269;50.838;12.094;2023-04-19T10:21:25;4.50;;;3.60;;
18286;SDS011;9269;50.838;12.094;2023-04-19T10:23:55;6.20;;;4.33;;
18286;SDS011;9269;50.838;12.094;2023-04-19T10:26:24;5.23;;;4.20;;
18286;SDS011;9269;50.838;12.094;2023-04-19T10:28:53;3.80;;;3.50;;
18286;SDS011;9269;50.838;12.094;2023-04-19T10:31:24;4.53;;;3.93;;
18286;SDS011;9269;50.838;12.094;2023-04-19T10:33:53;3.83;;;3.43;;
18286;SDS011;9269;50.838;12.094;2023-04-19T10:36:25;4.20;;;3.50;;
18286;SDS011;9269;50.838;12.094;2023-04-19T10:38:54;4.40;;;3.97;;
18286;SDS011;9269;50.838;12.094;2023-04-19T10:41:22;3.83;;;3.50;;
18286;SDS011;9269;50.838;12.094;2023-04-19T10:44:09;3.73;;;3.33;;
18286;SDS011;9269;50.838;12.094;2023-04-19T10:46:38;4.30;;;3.70;;
18286;SDS011;9269;50.838;12.094;2023-04-19T10:49:07;4.10;;;3.60;;
18286;SDS011;9269;50.838;12.094;2023-04-19T10:51:38;4.60;;;3.83;;
18286;SDS011;9269;50.838;12.094;2023-04-19T10:54:09;5.30;;;3.83;;
18286;SDS011;9269;50.838;12.094;2023-04-19T10:56:59;5.77;;;3.77;;
18286;SDS011;9269;50.838;12.094;2023-04-19T10:59:30;4.50;;;4.07;;
18286;SDS011;9269;50.838;12.094;2023-04-19T11:02:02;5.13;;;3.87;;
18286;SDS011;9269;50.838;12.094;2023-04-19T11:04:56;4.50;;;4.10;;
18286;SDS011;9269;50.838;12.094;2023-04-19T11:07:38;5.03;;;4.10;;
18286;SDS011;9269;50.838;12.094;2023-04-19T11:10:07;4.67;;;3.53;;
18286;SDS011;9269;50.838;12.094;2023-04-19T11:12:40;4.50;;;3.67;;
18286;SDS011;9269;50.838;12.094;2023-04-19T11:15:09;7.40;;;4.30;;
18286;SDS011;9269;50.838;12.094;2023-04-19T11:17:38;4.57;;;3.23;;
18286;SDS011;9269;50.838;12.094;2023-04-19T11:20:08;5.47;;;3.70;;
18286;SDS011;9269;50.838;12.094;2023-04-19T11:22:43;5.33;;;4.03;;
18286;SDS011;9269;50.838;12.094;2023-04-19T11:25:13;4.30;;;3.60;;
18286;SDS011;9269;50.838;12.094;2023-04-19T11:27:45;4.10;;;3.40;;
18286;SDS011;9269;50.838;12.094;2023-04-19T11:30:15;3.87;;;3.43;;
18286;SDS011;9269;50.838;12.094;2023-04-19T11:32:47;3.93;;;3.63;;
18286;SDS011;9269;50.838;12.094;2023-04-19T11:35:18;6.47;;;3.90;;
18286;SDS011;9269;50.838;12.094;2023-04-19T11:37:48;4.33;;;3.73;;
18286;SDS011;9269;50.838;12.094;2023-04-19T11:40:19;5.43;;;3.83;;
18286;SDS011;9269;50.838;12.094;2023-04-19T11:42:52;5.97;;;3.63;;
18286;SDS011;9269;50.838;12.094;2023-04-19T11:45:25;4.33;;;3.90;;
18286;SDS011;9269;50.838;12.094;2023-04-19T11:47:58;6.47;;;3.70;;
18286;SDS011;9269;50.838;12.094;2023-04-19T11:50:30;5.17;;;3.40;;
18286;SDS011;9269;50.838;12.094;2023-04-19T11:53:09;3.73;;;3.30;;
18286;SDS011;9269;50.838;12.094;2023-04-19T11:55:43;5.37;;;3.70;;
18286;SDS011;9269;50.838;12.094;2023-04-19T11:58:22;3.90;;;3.50;;
18286;SDS011;9269;50.838;12.094;2023-04-19T12:00:51;4.13;;;3.70;;
18286;SDS011;9269;50.838;12.094;2023-04-19T12:03:20;6.40;;;4.13;;
18286;SDS011;9269;50.838;12.094;2023-04-19T12:05:53;4.40;;;3.67;;
18286;SDS011;9269;50.838;12.094;2023-04-19T12:08:30;3.60;;;3.23;;
18286;SDS011;9269;50.838;12.094;2023-04-19T12:10:59;4.13;;;3.73;;
18286;SDS011;9269;50.838;12.094;2023-04-19T12:13:29;4.30;;;3.70;;
18286;SDS011;9269;50.838;12.094;2023-04-19T12:15:58;5.60;;;3.70;;
18286;SDS011;9269;50.838;12.094;2023-04-19T12:18:27;4.63;;;4.20;;
18286;SDS011;9269;50.838;12.094;2023-04-19T12:21:09;6.33;;;3.87;;
18286;SDS011;9269;50.838;12.094;2023-04-19T12:23:39;5.67;;;3.83;;
18286;SDS011;9269;50.838;12.094;2023-04-19T12:26:08;4.70;;;3.80;;
18286;SDS011;9269;50.838;12.094;2023-04-19T12:28:37;4.23;;;3.83;;
18286;SDS011;9269;50.838;12.094;2023-04-19T12:31:05;3.57;;;3.27;;
18286;SDS011;9269;50.838;12.094;2023-04-19T12:33:34;4.90;;;3.70;;
18286;SDS011;9269;50.838;12.094;2023-04-19T12:36:02;5.50;;;3.77;;
18286;SDS011;9269;50.838;12.094;2023-04-19T12:38:31;4.60;;;4.20;;
18286;SDS011;9269;50.838;12.094;2023-04-19T12:41:01;4.20;;;3.80;;
18286;SDS011;9269;50.838;12.094;2023-04-19T12:43:32;6.13;;;4.93;;
18286;SDS011;9269;50.838;12.094;2023-04-19T12:46:05;4.60;;;3.83;;
18286;SDS011;9269;50.838;12.094;2023-04-19T12:48:35;5.73;;;3.70;;
18286;SDS011;9269;50.838;12.094;2023-04-19T12:51:05;4.47;;;4.00;;
18286;SDS011;9269;50.838;12.094;2023-04-19T12:53:35;6.20;;;4.13;;
18286;SDS011;9269;50.838;12.094;2023-04-19T12:56:05;4.53;;;4.07;;
18286;SDS011;9269;50.838;12.094;2023-04-19T12:58:33;7.00;;;4.37;;
18286;SDS011;9269;50.838;12.094;2023-04-19T13:01:02;4.60;;;4.20;;
18286;SDS011;9269;50.838;12.094;2023-04-19T13:03:30;5.00;;;4.50;;
18286;SDS011;9269;50.838;12.094;2023-04-19T13:06:04;4.27;;;3.93;;
18286;SDS011;9269;50.838;12.094;2023-04-19T13:08:33;5.27;;;4.77;;
18286;SDS011;9269;50.838;12.094;2023-04-19T13:11:13;9.67;;;6.70;;
18286;SDS011;9269;50.838;12.094;2023-04-19T13:13:43;8.03;;;4.70;;
18286;SDS011;9269;50.838;12.094;2023-04-19T13:16:11;4.00;;;3.60;;
18286;SDS011;9269;50.838;12.094;2023-04-19T13:18:40;4.43;;;3.40;;
18286;SDS011;9269;50.838;12.094;2023-04-19T13:21:09;4.17;;;3.77;;
18286;SDS011;9269;50.838;12.094;2023-04-19T13:23:38;4.43;;;3.70;;
18286;SDS011;9269;50.838;12.094;2023-04-19T13:26:07;4.27;;;3.80;;
18286;SDS011;9269;50.838;12.094;2023-04-19T13:28:37;4.73;;;3.90;;
18286;SDS011;9269;50.838;12.094;2023-04-19T13:31:06;4.53;;;3.80;;
18286;SDS011;9269;50.838;12.094;2023-04-19T13:33:35;4.47;;;3.40;;
18286;SDS011;9269;50.838;12.094;2023-04-19T13:36:04;3.97;;;3.40;;
18286;SDS011;9269;50.838;12.094;2023-04-19T13:38:33;6.50;;;4.40;;
18286;SDS011;9269;50.838;12.094;2023-04-19T13:41:01;4.80;;;4.00;;
18286;SDS011;9269;50.838;12.094;2023-04-19T13:43:31;5.17;;;3.70;;
18286;SDS011;9269;50.838;12.094;2023-04-19T13:46:03;4.63;;;3.67;;
18286;SDS011;9269;50.838;12.094;2023-04-19T13:48:36;4.40;;;3.50;;
18286;SDS011;9269;50.838;12.094;2023-04-19T13:51:05;4.63;;;3.87;;
18286;SDS011;9269;50.838;12.094;2023-04-19T13:53:41;3.97;;;3.60;;
18286;SDS011;9269;50.838;12.094;2023-04-19T13:56:11;4.63;;;3.97;;
18286;SDS011;9269;50.838;12.094;2023-04-19T13:58:43;6.73;;;4.80;;
18286;SDS011;9269;50.838;12.094;2023-04-19T14:01:13;5.47;;;3.83;;
18286;SDS011;9269;50.838;12.094;2023-04-19T14:03:42;4.37;;;3.40;;
18286;SDS011;9269;50.838;12.094;2023-04-19T14:06:12;6.27;;;3.67;;
18286;SDS011;9269;50.838;12.094;2023-04-19T14:08:41;3.90;;;3.40;;
18286;SDS011;9269;50.838;12.094;2023-04-19T14:11:10;4.17;;;3.67;;
18286;SDS011;9269;50.838;12.094;2023-04-19T14:13:38;3.30;;;3.00;;
18286;SDS011;9269;50.838;12.094;2023-04-19T14:16:07;3.80;;;3.50;;
18286;SDS011;9269;50.838;12.094;2023-04-19T14:18:36;4.30;;;3.77;;
18286;SDS011;9269;50.838;12.094;2023-04-19T14:21:05;4.73;;;3.37;;
18286;SDS011;9269;50.838;12.094;2023-04-19T14:23:33;4.00;;;3.60;;
18286;SDS011;9269;50.838;12.094;2023-04-19T14:26:01;5.20;;;3.30;;
18286;SDS011;9269;50.838;12.094;2023-04-19T14:28:29;4.10;;;3.70;;
18286;SDS011;9269;50.838;12.094;2023-04-19T14:30:57;5.37;;;3.87;;
18286;SDS011;9269;50.838;12.094;2023-04-19T14:33:26;4.37;;;3.97;;
18286;SDS011;9269;50.838;12.094;2023-04-19T14:35:56;4.70;;;4.30;;
18286;SDS011;9269;50.838;12.094;2023-04-19T14:38:30;7.13;;;3.80;;
18286;SDS011;9269;50.838;12.094;2023-04-19T14:40:59;4.87;;;3.97;;
18286;SDS011;9269;50.838;12.094;2023-04-19T14:43:29;4.77;;;3.77;;
18286;SDS011;9269;50.838;12.094;2023-04-19T14:45:58;4.67;;;4.07;;
18286;SDS011;9269;50.838;12.094;2023-04-19T14:48:29;5.10;;;3.73;;
18286;SDS011;9269;50.838;12.094;2023-04-19T14:50:59;5.60;;;3.43;;
18286;SDS011;9269;50.838;12.094;2023-04-19T14:53:27;4.80;;;3.63;;
18286;SDS011;9269;50.838;12.094;2023-04-19T14:55:58;4.17;;;3.77;;
18286;SDS011;9269;50.838;12.094;2023-04-19T14:58:29;4.10;;;3.63;;
18286;SDS011;9269;50.838;12.094;2023-04-19T15:00:57;3.73;;;3.43;;